Time;durP1;ratioP1;P1;durP2;ratioP2;P2;SDS_P1;SDS_P2;PMS_P1;PMS_P2;Temp;Humidity;BMP_temperature;BMP_pressure;BME280_temperature;BME280_humidity;BME280_pressure;Samples;Min_cycle;Max_cycle;Signal;HPM_P1;HPM_P2
2023/09/30 00:01:41;;;;;;;17.58;10.20;;;;;;;;;;5060562;28;20720;-78
2023/09/30 00:04:07;;;;;;;15.93;10.07;;;;;;;;;;5058029;28;20385;-80
2023/09/30 00:06:33;;;;;;;15.98;9.70;;;;;;;;;;5061892;28;20382;-79
2023/09/30 00:08:59;;;;;;;17.13;10.10;;;;;;;;;;5060543;28;20389;-80
2023/09/30 00:11:25;;;;;;;16.52;10.30;;;;;;;;;;5062169;28;20412;-80
2023/09/30 00:13:51;;;;;;;15.87;9.67;;;;;;;;;;5072927;28;20390;-78
2023/09/30 00:16:18;;;;;;;16.60;9.57;;;;;;;;;;5069173;28;20384;-80
2023/09/30 00:18:44;;;;;;;16.70;10.57;;;;;;;;;;5059724;28;20421;-80
2023/09/30 00:21:11;;;;;;;15.05;9.38;;;;;;;;;;5051747;28;20406;-80
2023/09/30 00:23:37;;;;;;;15.82;9.30;;;;;;;;;;5064508;28;20389;-80
2023/09/30 00:26:03;;;;;;;13.55;8.82;;;;;;;;;;5063219;28;20432;-79
2023/09/30 00:28:29;;;;;;;15.27;9.30;;;;;;;;;;5061648;28;20419;-79
2023/09/30 00:30:55;;;;;;;13.40;8.73;;;;;;;;;;5063399;28;20468;-81
2023/09/30 00:33:21;;;;;;;17.92;8.73;;;;;;;;;;5077614;28;20750;-79
2023/09/30 00:35:47;;;;;;;15.32;8.70;;;;;;;;;;5064302;28;20420;-78
2023/09/30 00:38:14;;;;;;;13.75;8.35;;;;;;;;;;5074110;28;20393;-78
2023/09/30 00:40:47;;;;;;;11.23;7.20;;;;;;;;;;5066432;28;20412;-79
2023/09/30 00:43:18;;;;;;;11.45;7.32;;;;;;;;;;5053272;28;20391;-78
2023/09/30 00:45:44;;;;;;;13.02;7.90;;;;;;;;;;5059873;28;20417;-78
2023/09/30 00:48:10;;;;;;;14.43;8.27;;;;;;;;;;5069865;28;20380;-78
2023/09/30 00:50:37;;;;;;;13.68;7.90;;;;;;;;;;5068750;28;20396;-79
2023/09/30 00:53:03;;;;;;;12.07;7.65;;;;;;;;;;5064767;28;20389;-79
2023/09/30 00:55:29;;;;;;;12.00;7.47;;;;;;;;;;5079115;28;20499;-78
2023/09/30 00:57:56;;;;;;;11.55;7.50;;;;;;;;;;5080930;28;20446;-79
2023/09/30 01:00:25;;;;;;;11.60;7.90;;;;;;;;;;5080486;28;20372;-78
2023/09/30 01:02:52;;;;;;;13.40;8.00;;;;;;;;;;5079732;28;20842;-78
2023/09/30 01:05:18;;;;;;;11.75;7.63;;;;;;;;;;5079133;28;20420;-79
2023/09/30 01:07:45;;;;;;;12.23;7.93;;;;;;;;;;5079967;28;20447;-79
2023/09/30 01:10:11;;;;;;;11.70;7.75;;;;;;;;;;5066219;28;20393;-78
2023/09/30 01:12:37;;;;;;;12.47;7.60;;;;;;;;;;5066357;28;20465;-79
2023/09/30 01:15:06;;;;;;;12.95;7.85;;;;;;;;;;5080275;28;20418;-79
2023/09/30 01:17:32;;;;;;;12.77;7.80;;;;;;;;;;5080185;28;20442;-78
2023/09/30 01:20:04;;;;;;;12.98;8.18;;;;;;;;;;5080708;28;20395;-78
2023/09/30 01:22:30;;;;;;;11.55;7.57;;;;;;;;;;5080081;28;20388;-79
2023/09/30 01:24:56;;;;;;;14.23;8.10;;;;;;;;;;5080859;28;20410;-79
2023/09/30 01:27:23;;;;;;;14.98;8.57;;;;;;;;;;5079652;28;20384;-78
2023/09/30 01:29:50;;;;;;;11.90;7.75;;;;;;;;;;5080325;28;20399;-78
2023/09/30 01:32:16;;;;;;;12.90;8.35;;;;;;;;;;5079348;28;20375;-79
2023/09/30 01:34:42;;;;;;;12.13;8.07;;;;;;;;;;5067109;28;20433;-79
2023/09/30 01:37:08;;;;;;;11.18;7.70;;;;;;;;;;5079592;28;20380;-79
2023/09/30 01:39:34;;;;;;;12.23;7.82;;;;;;;;;;5071261;28;20406;-79
2023/09/30 01:42:00;;;;;;;13.85;7.80;;;;;;;;;;5069185;28;20381;-79
2023/09/30 01:44:26;;;;;;;13.48;7.97;;;;;;;;;;5076190;28;20440;-79
2023/09/30 01:46:52;;;;;;;12.52;7.82;;;;;;;;;;5079491;28;20391;-79
2023/09/30 01:49:18;;;;;;;13.13;7.93;;;;;;;;;;5078513;28;20399;-79
2023/09/30 01:51:45;;;;;;;11.93;8.07;;;;;;;;;;5077678;28;20926;-79
2023/09/30 01:54:11;;;;;;;14.55;9.10;;;;;;;;;;5061065;28;20401;-78
2023/09/30 01:56:37;;;;;;;12.45;7.95;;;;;;;;;;5057519;28;20390;-79
2023/09/30 01:59:04;;;;;;;13.52;8.27;;;;;;;;;;5059254;28;20392;-79
2023/09/30 02:01:29;;;;;;;14.38;7.50;;;;;;;;;;5060185;28;20412;-79
2023/09/30 02:03:55;;;;;;;11.73;7.75;;;;;;;;;;5056665;28;20899;-79
2023/09/30 02:06:21;;;;;;;13.90;8.30;;;;;;;;;;5065753;28;20452;-79
2023/09/30 02:08:47;;;;;;;10.93;7.50;;;;;;;;;;5060207;28;20385;-79
2023/09/30 02:11:13;;;;;;;11.52;7.40;;;;;;;;;;5060573;28;20400;-79
2023/09/30 02:13:39;;;;;;;13.43;8.00;;;;;;;;;;5059589;28;20377;-79
2023/09/30 02:16:05;;;;;;;15.67;8.07;;;;;;;;;;5059526;28;20392;-79
2023/09/30 02:18:32;;;;;;;14.80;8.18;;;;;;;;;;5060243;28;20389;-78
2023/09/30 02:20:59;;;;;;;13.93;8.18;;;;;;;;;;5059755;28;20385;-79
2023/09/30 02:23:25;;;;;;;12.15;7.95;;;;;;;;;;5060256;28;20390;-79
2023/09/30 02:25:52;;;;;;;13.10;7.47;;;;;;;;;;5059329;28;20408;-79
2023/09/30 02:28:18;;;;;;;13.20;7.73;;;;;;;;;;5059649;28;20400;-78
2023/09/30 02:30:44;;;;;;;10.02;6.97;;;;;;;;;;5060272;28;20389;-78
2023/09/30 02:33:10;;;;;;;13.82;7.70;;;;;;;;;;5060041;28;20863;-78
2023/09/30 02:35:38;;;;;;;12.05;7.88;;;;;;;;;;5059581;28;20392;-78
2023/09/30 02:38:05;;;;;;;13.50;8.07;;;;;;;;;;5059455;28;20382;-78
2023/09/30 02:40:31;;;;;;;11.53;7.80;;;;;;;;;;5062494;28;20428;-79
2023/09/30 02:42:57;;;;;;;13.43;8.18;;;;;;;;;;5060284;28;20461;-78
2023/09/30 02:45:23;;;;;;;13.40;8.50;;;;;;;;;;5059803;28;20466;-78
2023/09/30 02:47:49;;;;;;;14.93;8.45;;;;;;;;;;5060446;28;20867;-78
2023/09/30 02:50:15;;;;;;;11.98;8.38;;;;;;;;;;5061365;28;20401;-79
2023/09/30 02:52:41;;;;;;;13.93;8.13;;;;;;;;;;5063858;28;20409;-79
2023/09/30 02:55:10;;;;;;;13.33;8.00;;;;;;;;;;5063654;28;20758;-78
2023/09/30 02:57:36;;;;;;;11.93;8.13;;;;;;;;;;5063330;28;20421;-78
2023/09/30 03:00:12;;;;;;;12.65;7.22;;;;;;;;;;5062969;28;20435;-79
2023/09/30 03:02:39;;;;;;;13.77;8.15;;;;;;;;;;5062271;28;20392;-78
2023/09/30 03:05:06;;;;;;;11.98;7.70;;;;;;;;;;5062738;28;20490;-78
2023/09/30 03:07:33;;;;;;;12.05;7.60;;;;;;;;;;5063752;28;20461;-78
2023/09/30 03:10:04;;;;;;;11.65;7.65;;;;;;;;;;5062870;28;20385;-78
2023/09/30 03:12:31;;;;;;;13.23;8.10;;;;;;;;;;5062768;28;20420;-78
2023/09/30 03:14:57;;;;;;;12.55;7.57;;;;;;;;;;5063563;28;20388;-78
2023/09/30 03:17:25;;;;;;;11.05;7.45;;;;;;;;;;5062896;28;20498;-78
2023/09/30 03:19:51;;;;;;;14.73;7.57;;;;;;;;;;5062324;28;20411;-79
2023/09/30 03:22:17;;;;;;;11.57;7.00;;;;;;;;;;5060323;28;20386;-79
2023/09/30 03:24:43;;;;;;;11.52;7.13;;;;;;;;;;5059165;28;20420;-78
2023/09/30 03:27:09;;;;;;;10.93;7.22;;;;;;;;;;5061832;28;20421;-78
2023/09/30 03:29:38;;;;;;;11.40;7.30;;;;;;;;;;5063312;28;20395;-78
2023/09/30 03:32:04;;;;;;;11.95;8.07;;;;;;;;;;5062378;28;20407;-79
2023/09/30 03:34:30;;;;;;;11.13;7.15;;;;;;;;;;5062833;28;20401;-79
2023/09/30 03:36:58;;;;;;;9.50;6.78;;;;;;;;;;5063559;28;20386;-78
2023/09/30 03:39:27;;;;;;;11.18;7.10;;;;;;;;;;5062813;28;20444;-79
2023/09/30 03:41:58;;;;;;;11.18;6.97;;;;;;;;;;5062718;28;20381;-78
2023/09/30 03:44:24;;;;;;;8.75;5.95;;;;;;;;;;5062451;28;20414;-78
2023/09/30 03:46:51;;;;;;;9.90;6.32;;;;;;;;;;5062666;28;20389;-79
2023/09/30 03:49:17;;;;;;;9.35;6.70;;;;;;;;;;5062788;28;20389;-79
2023/09/30 03:51:43;;;;;;;11.55;6.88;;;;;;;;;;5063301;28;20850;-79
2023/09/30 03:54:09;;;;;;;9.25;6.50;;;;;;;;;;5060902;28;20862;-78
2023/09/30 03:56:35;;;;;;;9.23;5.90;;;;;;;;;;5062464;28;20377;-79
2023/09/30 03:59:01;;;;;;;9.70;6.28;;;;;;;;;;5068893;28;20382;-78
2023/09/30 04:01:27;;;;;;;8.03;5.33;;;;;;;;;;5067934;28;20421;-79
2023/09/30 04:03:56;;;;;;;8.65;5.78;;;;;;;;;;5074620;28;20391;-79
2023/09/30 04:06:22;;;;;;;9.68;5.82;;;;;;;;;;5066435;28;20438;-78
2023/09/30 04:08:48;;;;;;;8.25;5.72;;;;;;;;;;5071304;28;20473;-78
2023/09/30 04:11:18;;;;;;;9.90;5.57;;;;;;;;;;5066115;28;20397;-78
2023/09/30 04:13:46;;;;;;;9.32;5.57;;;;;;;;;;5062597;28;20385;-78
2023/09/30 04:16:13;;;;;;;9.23;5.90;;;;;;;;;;5062654;28;20381;-78
2023/09/30 04:18:41;;;;;;;9.07;5.72;;;;;;;;;;5067104;28;20831;-79
2023/09/30 04:21:07;;;;;;;9.25;5.68;;;;;;;;;;5069226;28;20384;-79
2023/09/30 04:23:36;;;;;;;7.45;4.93;;;;;;;;;;5062542;28;20400;-80
2023/09/30 04:26:02;;;;;;;8.38;5.45;;;;;;;;;;5064925;28;20491;-79
2023/09/30 04:28:28;;;;;;;7.22;5.05;;;;;;;;;;5060945;28;20392;-78
2023/09/30 04:30:54;;;;;;;8.75;5.30;;;;;;;;;;5066422;28;20382;-80
2023/09/30 04:33:24;;;;;;;8.52;5.38;;;;;;;;;;5067369;28;20407;-79
2023/09/30 04:35:50;;;;;;;9.95;5.57;;;;;;;;;;5057860;28;20381;-78
2023/09/30 04:38:16;;;;;;;7.25;4.97;;;;;;;;;;5069965;28;20780;-79
2023/09/30 04:40:44;;;;;;;7.60;5.05;;;;;;;;;;5064777;28;20386;-79
2023/09/30 04:43:10;;;;;;;8.40;5.60;;;;;;;;;;5064630;28;20390;-80
2023/09/30 04:45:36;;;;;;;10.05;5.35;;;;;;;;;;5062222;28;20416;-79
2023/09/30 04:48:03;;;;;;;9.57;5.50;;;;;;;;;;5062243;28;20383;-80
2023/09/30 04:50:30;;;;;;;7.47;5.32;;;;;;;;;;5079886;28;20383;-79
2023/09/30 04:52:56;;;;;;;8.80;5.10;;;;;;;;;;5075720;28;20424;-80
2023/09/30 04:55:23;;;;;;;8.52;5.57;;;;;;;;;;5077509;28;20386;-80
2023/09/30 04:57:49;;;;;;;7.97;5.28;;;;;;;;;;5068449;28;20443;-79
2023/09/30 05:00:17;;;;;;;9.50;5.53;;;;;;;;;;5072343;28;20925;-79
2023/09/30 05:02:47;;;;;;;9.73;5.50;;;;;;;;;;5069578;28;20489;-79
2023/09/30 05:05:14;;;;;;;9.25;5.20;;;;;;;;;;5063503;28;20445;-79
2023/09/30 05:07:41;;;;;;;6.75;4.82;;;;;;;;;;5065938;28;20396;-80
2023/09/30 05:10:11;;;;;;;8.82;5.80;;;;;;;;;;5065164;28;20886;-79
2023/09/30 05:12:37;;;;;;;7.82;5.05;;;;;;;;;;5076441;28;20383;-79
2023/09/30 05:15:06;;;;;;;7.85;5.15;;;;;;;;;;5079219;28;20929;-78
2023/09/30 05:17:32;;;;;;;7.40;5.43;;;;;;;;;;5075382;28;20842;-79
2023/09/30 05:19:58;;;;;;;7.20;5.07;;;;;;;;;;5076259;28;20384;-79
2023/09/30 05:22:24;;;;;;;8.10;5.10;;;;;;;;;;5067614;28;20393;-79
2023/09/30 05:24:53;;;;;;;9.43;5.47;;;;;;;;;;5071052;28;20418;-78
2023/09/30 05:27:20;;;;;;;8.45;5.35;;;;;;;;;;5066784;28;20425;-79
2023/09/30 05:29:46;;;;;;;6.32;4.57;;;;;;;;;;5072421;28;20378;-79
2023/09/30 05:32:14;;;;;;;7.88;4.75;;;;;;;;;;5071295;28;20383;-80
2023/09/30 05:34:40;;;;;;;7.35;4.90;;;;;;;;;;5075958;28;20386;-77
2023/09/30 05:37:06;;;;;;;7.70;4.97;;;;;;;;;;5079210;28;20378;-79
2023/09/30 05:39:32;;;;;;;7.03;4.63;;;;;;;;;;5080998;28;20425;-80
2023/09/30 05:41:58;;;;;;;7.35;4.43;;;;;;;;;;5081427;28;20391;-80
2023/09/30 05:44:27;;;;;;;7.65;4.63;;;;;;;;;;5060966;28;20399;-80
2023/09/30 05:46:53;;;;;;;7.40;4.90;;;;;;;;;;5067119;28;20436;-80
2023/09/30 05:49:20;;;;;;;6.18;4.53;;;;;;;;;;5074239;28;20381;-80
2023/09/30 05:51:48;;;;;;;8.32;5.07;;;;;;;;;;5070524;28;20390;-80
2023/09/30 05:54:14;;;;;;;8.68;4.35;;;;;;;;;;5071365;28;20388;-80
2023/09/30 05:56:42;;;;;;;7.50;4.70;;;;;;;;;;5075377;28;20741;-80
2023/09/30 05:59:09;;;;;;;9.07;5.07;;;;;;;;;;5072941;28;20415;-80
2023/09/30 06:01:35;;;;;;;7.72;5.10;;;;;;;;;;5076749;28;20416;-80
2023/09/30 06:04:02;;;;;;;6.72;4.45;;;;;;;;;;5071430;28;20461;-81
2023/09/30 06:06:31;;;;;;;6.53;4.57;;;;;;;;;;5073458;28;20415;-80
2023/09/30 06:09:00;;;;;;;6.43;4.53;;;;;;;;;;5067718;28;20531;-80
2023/09/30 06:11:29;;;;;;;8.02;5.30;;;;;;;;;;5069666;28;20369;-80
2023/09/30 06:13:59;;;;;;;8.20;5.10;;;;;;;;;;5061081;28;20385;-80
2023/09/30 06:16:26;;;;;;;8.10;5.00;;;;;;;;;;5060779;28;20385;-79
2023/09/30 06:18:52;;;;;;;9.75;5.13;;;;;;;;;;5057706;28;20743;-80
2023/09/30 06:21:20;;;;;;;6.57;4.32;;;;;;;;;;5040685;28;20443;-80
2023/09/30 06:23:46;;;;;;;7.25;5.13;;;;;;;;;;5059264;28;20731;-80
2023/09/30 06:26:12;;;;;;;6.88;4.53;;;;;;;;;;5064656;28;20452;-80
2023/09/30 06:28:41;;;;;;;8.38;5.18;;;;;;;;;;5044639;28;20910;-80
2023/09/30 06:31:08;;;;;;;7.53;4.57;;;;;;;;;;5062226;28;20445;-80
2023/09/30 06:33:34;;;;;;;7.10;4.82;;;;;;;;;;5044161;28;20389;-80
2023/09/30 06:36:02;;;;;;;7.20;4.85;;;;;;;;;;5044130;28;20381;-80
2023/09/30 06:38:28;;;;;;;7.17;4.80;;;;;;;;;;5061962;28;20486;-80
2023/09/30 06:40:54;;;;;;;9.63;5.90;;;;;;;;;;5044149;28;20487;-80
2023/09/30 06:43:20;;;;;;;11.48;6.50;;;;;;;;;;5061486;28;20390;-80
2023/09/30 06:45:46;;;;;;;10.50;6.37;;;;;;;;;;5062799;28;20452;-80
2023/09/30 06:48:13;;;;;;;13.75;7.05;;;;;;;;;;5060434;28;20421;-80
2023/09/30 06:50:48;;;;;;;12.73;6.72;;;;;;;;;;5053850;28;20393;-80
2023/09/30 06:53:14;;;;;;;12.33;7.27;;;;;;;;;;5061795;28;20392;-80
2023/09/30 06:55:40;;;;;;;10.48;7.00;;;;;;;;;;5061982;28;20531;-80
2023/09/30 06:58:10;;;;;;;10.15;7.00;;;;;;;;;;5042652;28;20396;-80
2023/09/30 07:00:37;;;;;;;11.13;6.60;;;;;;;;;;5063424;28;20847;-80
2023/09/30 07:03:03;;;;;;;8.97;6.63;;;;;;;;;;5061737;28;20472;-80
2023/09/30 07:05:29;;;;;;;9.55;6.18;;;;;;;;;;5059786;28;20968;-79
2023/09/30 07:07:55;;;;;;;10.80;6.35;;;;;;;;;;5063110;28;20703;-79
2023/09/30 07:10:22;;;;;;;11.18;6.90;;;;;;;;;;5067478;28;20419;-79
2023/09/30 07:12:48;;;;;;;9.15;6.30;;;;;;;;;;5059292;28;20386;-80
2023/09/30 07:15:17;;;;;;;8.57;5.73;;;;;;;;;;5062814;28;20412;-79
2023/09/30 07:17:43;;;;;;;9.55;5.55;;;;;;;;;;5063688;28;20395;-79
2023/09/30 07:20:09;;;;;;;9.40;6.32;;;;;;;;;;5060679;28;20408;-79
2023/09/30 07:22:36;;;;;;;10.25;6.60;;;;;;;;;;5062919;28;20428;-79
2023/09/30 07:25:05;;;;;;;12.02;7.32;;;;;;;;;;5060708;28;20483;-80
2023/09/30 07:27:31;;;;;;;10.55;6.22;;;;;;;;;;5059821;28;20424;-80
2023/09/30 07:29:57;;;;;;;10.00;6.40;;;;;;;;;;5041054;28;20397;-79
2023/09/30 07:32:23;;;;;;;12.32;6.88;;;;;;;;;;5059821;28;20393;-82
2023/09/30 07:34:50;;;;;;;12.23;7.32;;;;;;;;;;5061248;28;20393;-82
2023/09/30 07:37:17;;;;;;;9.88;6.32;;;;;;;;;;5062245;28;20386;-82
2023/09/30 07:39:44;;;;;;;8.15;5.75;;;;;;;;;;5065660;28;20388;-82
2023/09/30 07:42:10;;;;;;;9.75;6.07;;;;;;;;;;5063801;28;20382;-82
2023/09/30 07:44:37;;;;;;;8.57;5.75;;;;;;;;;;5064049;28;20444;-82
2023/09/30 07:47:03;;;;;;;8.70;5.10;;;;;;;;;;5063715;28;21000;-82
2023/09/30 07:49:30;;;;;;;8.02;4.82;;;;;;;;;;5063021;28;20378;-82
2023/09/30 07:51:56;;;;;;;7.55;4.70;;;;;;;;;;5064708;28;20420;-82
2023/09/30 07:54:25;;;;;;;8.18;4.40;;;;;;;;;;5064034;28;20382;-82
2023/09/30 07:56:51;;;;;;;6.70;4.13;;;;;;;;;;5065070;28;20464;-81
2023/09/30 07:59:17;;;;;;;7.10;4.60;;;;;;;;;;5063551;28;20452;-82
2023/09/30 08:01:43;;;;;;;8.30;4.30;;;;;;;;;;5063783;28;20415;-82
2023/09/30 08:04:09;;;;;;;6.80;4.57;;;;;;;;;;5067289;28;20518;-81
2023/09/30 08:06:39;;;;;;;7.28;4.38;;;;;;;;;;5076960;28;20425;-81
2023/09/30 08:09:10;;;;;;;6.90;4.30;;;;;;;;;;5074731;28;20408;-82
2023/09/30 08:11:37;;;;;;;5.75;4.10;;;;;;;;;;5063366;28;20388;-81
2023/09/30 08:14:06;;;;;;;5.60;3.97;;;;;;;;;;5061272;28;21268;-82
2023/09/30 08:16:32;;;;;;;7.05;4.28;;;;;;;;;;5061800;28;20377;-81
2023/09/30 08:18:58;;;;;;;7.18;4.40;;;;;;;;;;5061826;28;20401;-82
2023/09/30 08:21:24;;;;;;;7.57;5.47;;;;;;;;;;5074722;28;20387;-81
2023/09/30 08:23:50;;;;;;;7.88;4.90;;;;;;;;;;5067382;28;20393;-81
2023/09/30 08:26:16;;;;;;;7.68;4.28;;;;;;;;;;5074952;28;20418;-82
2023/09/30 08:28:42;;;;;;;8.40;5.20;;;;;;;;;;5060966;28;20407;-82
2023/09/30 08:31:09;;;;;;;8.68;5.10;;;;;;;;;;5061271;28;20385;-82
2023/09/30 08:33:41;;;;;;;7.65;4.80;;;;;;;;;;5062304;28;20386;-82
2023/09/30 08:36:08;;;;;;;7.25;5.10;;;;;;;;;;5062091;28;20381;-82
2023/09/30 08:38:37;;;;;;;6.60;4.50;;;;;;;;;;5075593;28;20389;-81
2023/09/30 08:41:04;;;;;;;8.50;5.05;;;;;;;;;;5061054;28;20855;-82
2023/09/30 08:43:33;;;;;;;7.85;4.90;;;;;;;;;;5062348;28;20378;-82
2023/09/30 08:45:59;;;;;;;9.80;5.70;;;;;;;;;;5062204;28;20413;-82
2023/09/30 08:48:29;;;;;;;12.77;8.43;;;;;;;;;;5075103;28;20395;-82
2023/09/30 08:50:56;;;;;;;8.60;5.57;;;;;;;;;;5069884;28;20470;-82
2023/09/30 08:53:22;;;;;;;9.60;5.93;;;;;;;;;;5068897;28;20429;-82
2023/09/30 08:55:50;;;;;;;9.07;5.53;;;;;;;;;;5076171;28;20394;-82
2023/09/30 08:58:16;;;;;;;10.40;5.30;;;;;;;;;;5063531;28;20413;-82
2023/09/30 09:00:43;;;;;;;10.27;5.68;;;;;;;;;;5063597;28;20519;-82
2023/09/30 09:03:09;;;;;;;11.15;6.30;;;;;;;;;;5064963;28;20737;-82
2023/09/30 09:05:35;;;;;;;10.88;6.03;;;;;;;;;;5062370;28;20459;-83
2023/09/30 09:08:01;;;;;;;9.73;6.07;;;;;;;;;;5063734;28;20425;-82
2023/09/30 09:10:27;;;;;;;8.40;5.68;;;;;;;;;;5063959;28;20404;-82
2023/09/30 09:12:59;;;;;;;10.70;6.88;;;;;;;;;;5062592;28;20409;-82
2023/09/30 09:15:26;;;;;;;9.60;5.93;;;;;;;;;;5063078;28;20392;-82
2023/09/30 09:17:52;;;;;;;8.88;5.57;;;;;;;;;;5062451;28;20400;-83
2023/09/30 09:20:25;;;;;;;11.85;6.15;;;;;;;;;;5063228;28;20391;-82
2023/09/30 09:22:55;;;;;;;11.25;6.90;;;;;;;;;;5065002;28;20410;-82
2023/09/30 09:25:25;;;;;;;9.30;6.18;;;;;;;;;;5071418;28;20417;-82
2023/09/30 09:27:51;;;;;;;10.43;6.03;;;;;;;;;;5062152;28;20392;-82
2023/09/30 09:30:20;;;;;;;8.55;5.82;;;;;;;;;;5044638;28;20385;-82
2023/09/30 09:33:00;;;;;;;10.43;6.03;;;;;;;;;;5060961;28;20378;-82
2023/09/30 09:35:28;;;;;;;10.70;6.32;;;;;;;;;;5061820;28;20390;-83
2023/09/30 09:37:58;;;;;;;10.80;6.60;;;;;;;;;;5060820;28;20383;-82
2023/09/30 09:40:26;;;;;;;10.55;6.35;;;;;;;;;;5062557;28;20396;-82
2023/09/30 09:42:54;;;;;;;10.00;6.50;;;;;;;;;;5044221;28;20394;-83
2023/09/30 09:45:22;;;;;;;9.18;6.28;;;;;;;;;;5062829;28;20427;-82
2023/09/30 09:47:49;;;;;;;11.38;6.78;;;;;;;;;;5061479;28;20409;-82
2023/09/30 09:50:15;;;;;;;11.75;6.05;;;;;;;;;;5069695;28;20381;-82
2023/09/30 09:52:43;;;;;;;9.52;6.18;;;;;;;;;;5062454;28;20394;-82
2023/09/30 09:55:11;;;;;;;8.95;6.18;;;;;;;;;;5061413;28;20411;-82
2023/09/30 09:57:37;;;;;;;9.93;5.97;;;;;;;;;;5066825;28;20378;-83
2023/09/30 10:00:11;;;;;;;7.93;5.97;;;;;;;;;;5064231;28;20381;-82
2023/09/30 10:02:39;;;;;;;10.05;6.20;;;;;;;;;;5065169;28;20423;-82
2023/09/30 10:05:06;;;;;;;9.48;5.93;;;;;;;;;;5063649;28;20441;-82
2023/09/30 10:07:35;;;;;;;11.80;7.10;;;;;;;;;;5062683;28;20468;-82
2023/09/30 10:10:03;;;;;;;9.68;6.47;;;;;;;;;;5063512;28;20762;-82
2023/09/30 10:12:36;;;;;;;10.70;6.67;;;;;;;;;;5077988;28;20383;-83
2023/09/30 10:15:22;;;;;;;9.52;6.10;;;;;;;;;;5063463;28;20898;-82
2023/09/30 10:18:03;;;;;;;10.85;6.28;;;;;;;;;;5063617;28;20427;-82
2023/09/30 10:20:30;;;;;;;11.52;6.88;;;;;;;;;;5063636;28;20378;-83
2023/09/30 10:23:15;;;;;;;11.13;7.07;;;;;;;;;;5067509;28;20384;-82
2023/09/30 10:25:46;;;;;;;12.02;6.65;;;;;;;;;;5082549;28;20415;-83
2023/09/30 10:28:31;;;;;;;10.98;6.65;;;;;;;;;;5064431;28;20407;-83
2023/09/30 10:31:17;;;;;;;9.55;6.35;;;;;;;;;;5063581;28;20378;-82
2023/09/30 10:34:05;;;;;;;10.23;6.45;;;;;;;;;;5062454;28;20449;-82
2023/09/30 10:36:32;;;;;;;10.90;6.70;;;;;;;;;;5063422;28;20460;-82
2023/09/30 10:38:58;;;;;;;10.63;7.05;;;;;;;;;;5064701;28;20389;-82
2023/09/30 10:41:56;;;;;;;10.27;6.70;;;;;;;;;;5065060;28;20377;-82
2023/09/30 10:44:22;;;;;;;11.15;6.95;;;;;;;;;;5030749;28;20393;-83
2023/09/30 10:46:50;;;;;;;13.00;6.95;;;;;;;;;;5063305;28;20421;-82
2023/09/30 10:49:17;;;;;;;10.38;6.80;;;;;;;;;;5063363;28;20387;-82
2023/09/30 10:51:44;;;;;;;11.40;7.15;;;;;;;;;;5062532;28;20446;-82
2023/09/30 10:54:13;;;;;;;12.23;7.33;;;;;;;;;;5064160;28;20482;-83
2023/09/30 10:56:39;;;;;;;10.25;6.50;;;;;;;;;;5063608;28;20714;-80
2023/09/30 10:59:05;;;;;;;9.80;6.32;;;;;;;;;;5062315;28;20389;-82
2023/09/30 11:01:34;;;;;;;11.13;7.23;;;;;;;;;;5063730;28;20397;-82
2023/09/30 11:04:03;;;;;;;10.70;7.07;;;;;;;;;;5062141;28;20377;-83
2023/09/30 11:06:29;;;;;;;10.30;6.45;;;;;;;;;;5062930;28;20409;-83
2023/09/30 11:08:59;;;;;;;10.15;7.10;;;;;;;;;;5063629;28;20378;-83
2023/09/30 11:11:48;;;;;;;11.98;7.10;;;;;;;;;;5070224;28;20850;-82
2023/09/30 11:14:18;;;;;;;12.13;7.32;;;;;;;;;;5065145;28;20859;-82
2023/09/30 11:16:44;;;;;;;11.93;7.40;;;;;;;;;;5061454;28;20449;-82
2023/09/30 11:19:14;;;;;;;11.60;6.88;;;;;;;;;;5062451;28;20377;-82
2023/09/30 11:21:41;;;;;;;11.90;6.47;;;;;;;;;;5061647;28;20385;-82
2023/09/30 11:24:07;;;;;;;12.23;7.40;;;;;;;;;;5062406;28;20398;-82
2023/09/30 11:26:34;;;;;;;10.27;6.68;;;;;;;;;;5062290;28;20966;-82
2023/09/30 11:29:08;;;;;;;11.57;7.18;;;;;;;;;;5044236;28;20419;-82
2023/09/30 11:31:34;;;;;;;11.27;6.77;;;;;;;;;;5062687;28;20414;-82
2023/09/30 11:34:04;;;;;;;9.77;7.13;;;;;;;;;;5062015;28;20412;-82
2023/09/30 11:36:34;;;;;;;11.18;6.88;;;;;;;;;;5062265;28;20381;-82
2023/09/30 11:39:02;;;;;;;11.93;6.93;;;;;;;;;;5062402;28;20381;-82
2023/09/30 11:41:38;;;;;;;10.85;6.72;;;;;;;;;;5061693;28;20886;-80
2023/09/30 11:44:07;;;;;;;11.23;6.90;;;;;;;;;;5060584;28;20500;-82
2023/09/30 11:46:48;;;;;;;10.98;6.72;;;;;;;;;;5061010;28;20423;-82
2023/09/30 11:49:24;;;;;;;10.60;7.15;;;;;;;;;;5060457;28;20412;-82
2023/09/30 11:51:50;;;;;;;11.63;7.18;;;;;;;;;;5060791;28;20726;-82
2023/09/30 11:54:16;;;;;;;10.65;6.43;;;;;;;;;;5060563;28;20432;-82
2023/09/30 11:56:42;;;;;;;11.77;6.93;;;;;;;;;;5061883;28;20382;-82
2023/09/30 11:59:10;;;;;;;9.33;6.40;;;;;;;;;;5062909;28;20389;-82
2023/09/30 12:01:37;;;;;;;9.55;6.53;;;;;;;;;;5059844;28;20778;-83
2023/09/30 12:04:03;;;;;;;12.18;6.97;;;;;;;;;;5059999;28;20389;-82
2023/09/30 12:06:29;;;;;;;10.93;6.68;;;;;;;;;;5061370;28;20409;-82
2023/09/30 12:08:55;;;;;;;10.97;6.53;;;;;;;;;;5060702;28;20401;-82
2023/09/30 12:11:23;;;;;;;10.00;6.32;;;;;;;;;;5067254;28;20388;-82
2023/09/30 12:13:50;;;;;;;11.35;6.78;;;;;;;;;;5066573;28;20816;-80
2023/09/30 12:16:16;;;;;;;9.98;6.57;;;;;;;;;;5061137;28;20495;-82
2023/09/30 12:18:42;;;;;;;10.00;6.55;;;;;;;;;;5061899;28;20470;-82
2023/09/30 12:21:10;;;;;;;13.38;7.15;;;;;;;;;;5060728;28;20877;-82
2023/09/30 12:23:36;;;;;;;10.93;6.53;;;;;;;;;;5070918;28;20396;-82
2023/09/30 12:26:05;;;;;;;10.90;6.97;;;;;;;;;;5066946;28;20603;-82
2023/09/30 12:28:32;;;;;;;16.90;6.80;;;;;;;;;;5061610;28;20408;-82
2023/09/30 12:30:58;;;;;;;15.85;7.03;;;;;;;;;;5060958;28;21200;-82
2023/09/30 12:33:24;;;;;;;10.63;6.47;;;;;;;;;;5062004;28;20393;-82
2023/09/30 12:35:51;;;;;;;13.27;6.78;;;;;;;;;;5057642;28;20374;-78
2023/09/30 12:38:17;;;;;;;36.90;8.52;;;;;;;;;;5055573;28;20374;-81
2023/09/30 12:40:43;;;;;;;15.32;6.75;;;;;;;;;;5055776;28;20393;-80
2023/09/30 12:43:14;;;;;;;12.27;6.80;;;;;;;;;;5136534;27;20367;-79
2023/09/30 12:45:40;;;;;;;9.43;6.22;;;;;;;;;;5115355;28;20950;-81
2023/09/30 12:48:07;;;;;;;9.93;6.60;;;;;;;;;;5127271;28;20407;-81
2023/09/30 12:50:33;;;;;;;10.07;6.50;;;;;;;;;;5134201;28;20379;-81
2023/09/30 12:52:59;;;;;;;9.40;6.43;;;;;;;;;;5126553;28;20391;-80
2023/09/30 12:55:26;;;;;;;10.63;6.35;;;;;;;;;;5130273;28;20491;-81
2023/09/30 12:57:53;;;;;;;12.27;6.85;;;;;;;;;;5121579;28;20374;-79
2023/09/30 13:00:19;;;;;;;10.38;6.78;;;;;;;;;;5122269;28;20387;-80
2023/09/30 13:02:46;;;;;;;9.53;6.50;;;;;;;;;;5097047;28;20417;-81
2023/09/30 13:05:12;;;;;;;10.43;7.03;;;;;;;;;;5133389;28;20471;-80
2023/09/30 13:07:38;;;;;;;10.40;6.80;;;;;;;;;;5121305;28;20618;-80
2023/09/30 13:10:05;;;;;;;8.57;6.40;;;;;;;;;;5116097;28;20389;-80
2023/09/30 13:12:34;;;;;;;9.63;6.45;;;;;;;;;;5119267;28;20377;-80
2023/09/30 13:15:01;;;;;;;9.30;6.37;;;;;;;;;;5116559;28;20484;-79
2023/09/30 13:17:27;;;;;;;9.35;6.47;;;;;;;;;;5116359;28;20374;-80
2023/09/30 13:19:53;;;;;;;9.80;6.82;;;;;;;;;;5107048;28;20384;-80
2023/09/30 13:22:19;;;;;;;10.07;6.93;;;;;;;;;;5122825;28;20471;-80
2023/09/30 13:24:45;;;;;;;10.52;7.20;;;;;;;;;;5129806;28;20727;-79
2023/09/30 13:27:11;;;;;;;10.90;6.80;;;;;;;;;;5128811;28;20385;-79
2023/09/30 13:29:38;;;;;;;11.77;6.75;;;;;;;;;;5101838;28;20735;-80
2023/09/30 13:32:11;;;;;;;11.48;7.07;;;;;;;;;;5101367;28;20595;-81
2023/09/30 13:34:38;;;;;;;10.00;6.70;;;;;;;;;;5118792;28;20818;-80
2023/09/30 13:37:04;;;;;;;10.20;6.78;;;;;;;;;;5117890;28;20401;-81
2023/09/30 13:39:31;;;;;;;9.13;6.35;;;;;;;;;;5121455;28;20401;-81
2023/09/30 13:41:57;;;;;;;9.43;6.68;;;;;;;;;;5119330;28;20409;-81
2023/09/30 13:44:23;;;;;;;11.52;6.82;;;;;;;;;;5116936;28;20397;-80
2023/09/30 13:46:49;;;;;;;10.65;6.70;;;;;;;;;;5106872;28;20901;-81
2023/09/30 13:49:15;;;;;;;12.90;6.95;;;;;;;;;;5107926;28;20960;-81
2023/09/30 13:51:41;;;;;;;9.88;6.32;;;;;;;;;;5119396;28;20843;-80
2023/09/30 13:54:07;;;;;;;10.93;6.90;;;;;;;;;;5106128;28;20408;-80
2023/09/30 13:56:34;;;;;;;9.68;7.05;;;;;;;;;;5106901;28;20378;-80
2023/09/30 13:59:00;;;;;;;10.40;6.68;;;;;;;;;;5103617;28;20394;-80
2023/09/30 14:01:26;;;;;;;10.67;6.07;;;;;;;;;;5110437;28;20505;-79
2023/09/30 14:03:57;;;;;;;10.07;6.90;;;;;;;;;;5108521;28;20400;-81
2023/09/30 14:06:23;;;;;;;9.73;6.32;;;;;;;;;;5107255;28;20476;-81
2023/09/30 14:08:50;;;;;;;8.98;6.38;;;;;;;;;;5091359;28;20404;-81
2023/09/30 14:11:16;;;;;;;10.75;7.57;;;;;;;;;;5105770;28;20389;-81
2023/09/30 14:13:42;;;;;;;9.02;6.63;;;;;;;;;;5086120;28;20441;-80
2023/09/30 14:16:11;;;;;;;8.13;5.90;;;;;;;;;;5103093;28;20741;-81
2023/09/30 14:18:39;;;;;;;9.60;6.00;;;;;;;;;;5098553;28;20396;-80
2023/09/30 14:21:05;;;;;;;8.73;6.40;;;;;;;;;;5113120;28;20846;-80
2023/09/30 14:23:31;;;;;;;10.25;6.70;;;;;;;;;;5106228;28;20392;-80
2023/09/30 14:25:57;;;;;;;10.27;6.70;;;;;;;;;;5099209;28;20382;-80
2023/09/30 14:28:23;;;;;;;10.43;6.22;;;;;;;;;;5115013;28;20385;-80
2023/09/30 14:30:53;;;;;;;11.43;6.78;;;;;;;;;;5114133;28;20376;-80
2023/09/30 14:33:19;;;;;;;9.45;6.60;;;;;;;;;;5103458;28;20521;-79
2023/09/30 14:35:46;;;;;;;9.07;6.18;;;;;;;;;;5106845;28;20397;-79
2023/09/30 14:38:12;;;;;;;10.30;6.78;;;;;;;;;;5100522;28;20377;-80